createdAt,value
2019-06-10T00:00:11.660Z,17.30
2019-06-10T00:01:08.050Z,17.30
2019-06-10T00:02:05.889Z,17.30
2019-06-10T00:03:05.946Z,17.30
2019-06-10T00:04:09.352Z,17.30
2019-06-10T00:05:10.935Z,17.30
2019-06-10T00:06:05.630Z,17.20
2019-06-10T00:07:05.760Z,17.20
2019-06-10T00:08:05.828Z,17.20
2019-06-10T00:09:06.711Z,17.20
2019-06-10T00:10:06.068Z,17.20
2019-06-10T00:11:07.419Z,17.20
2019-06-10T00:12:06.061Z,17.20
2019-06-10T00:13:06.920Z,17.20
2019-06-10T00:14:06.102Z,17.20
2019-06-10T00:15:06.173Z,17.20
2019-06-10T00:16:06.077Z,17.20
2019-06-10T00:17:06.397Z,17.20
2019-06-10T00:18:24.463Z,17.20
2019-06-10T00:19:06.733Z,17.20
2019-06-10T00:20:06.962Z,17.20
2019-06-10T00:21:06.709Z,17.20
2019-06-10T00:22:05.607Z,17.20
2019-06-10T00:23:06.578Z,17.20
2019-06-10T00:24:11.757Z,17.20
2019-06-10T00:25:05.716Z,17.20
2019-06-10T00:26:07.369Z,17.20
2019-06-10T00:27:05.859Z,17.20
2019-06-10T00:28:06.138Z,17.20
2019-06-10T00:29:05.799Z,17.10
2019-06-10T00:30:06.425Z,17.10
2019-06-10T00:31:05.644Z,17.10
2019-06-10T00:32:06.931Z,17.10
2019-06-10T00:33:06.431Z,17.10
2019-06-10T00:34:06.562Z,17.10
2019-06-10T00:35:06.185Z,17.00
2019-06-10T00:36:06.738Z,17.00
2019-06-10T00:37:06.227Z,17.00
2019-06-10T00:38:07.321Z,17.10
2019-06-10T00:39:05.610Z,17.00
2019-06-10T00:40:07.553Z,17.00
2019-06-10T00:41:05.930Z,17.00
2019-06-10T00:42:07.629Z,17.10
2019-06-10T00:43:08.961Z,17.10
2019-06-10T00:44:12.269Z,17.10
2019-06-10T00:45:07.037Z,17.10
2019-06-10T00:46:06.270Z,17.10
2019-06-10T00:47:09.096Z,17.20
2019-06-10T00:48:15.621Z,17.10
2019-06-10T00:49:06.232Z,17.20
2019-06-10T00:50:07.221Z,17.20
2019-06-10T00:51:06.024Z,17.20
2019-06-10T00:52:06.119Z,17.20
2019-06-10T00:53:05.904Z,17.20
2019-06-10T00:54:06.921Z,17.20
2019-06-10T00:55:06.144Z,17.20
2019-06-10T00:56:05.644Z,17.20
2019-06-10T00:57:05.650Z,17.20
2019-06-10T00:58:05.720Z,17.20
2019-06-10T00:59:05.800Z,17.20
2019-06-10T01:00:14.424Z,17.20
2019-06-10T01:01:07.937Z,17.20
2019-06-10T01:02:06.340Z,17.20
2019-06-10T01:03:06.003Z,17.20
2019-06-10T01:04:06.837Z,17.20
2019-06-10T01:05:05.593Z,17.20
2019-06-10T01:06:06.367Z,17.20
2019-06-10T01:07:06.494Z,17.10
2019-06-10T01:08:04.822Z,17.20
2019-06-10T01:09:06.611Z,17.20
2019-06-10T01:10:04.868Z,17.10
2019-06-10T01:11:10.199Z,17.10
2019-06-10T01:12:05.328Z,17.20
2019-06-10T01:13:05.626Z,17.20
2019-06-10T01:14:05.159Z,17.10
2019-06-10T01:15:05.325Z,17.00
2019-06-10T01:16:05.494Z,17.00
2019-06-10T01:17:05.557Z,17.10
2019-06-10T01:18:05.531Z,17.00
2019-06-10T01:19:07.755Z,17.00
2019-06-10T01:20:05.727Z,16.90
2019-06-10T01:21:12.080Z,16.90
2019-06-10T01:22:11.029Z,16.90
2019-06-10T01:23:04.973Z,16.90
2019-06-10T01:24:05.106Z,16.90
2019-06-10T01:25:05.311Z,17.00
2019-06-10T01:26:07.724Z,16.90
2019-06-10T01:27:05.454Z,16.90
2019-06-10T01:28:05.767Z,17.00
2019-06-10T01:29:05.630Z,16.90
2019-06-10T01:30:10.054Z,16.90
2019-06-10T01:31:09.386Z,16.90
2019-06-10T01:32:09.664Z,16.90
2019-06-10T01:33:08.173Z,16.90
2019-06-10T01:34:05.533Z,16.90
2019-06-10T01:35:06.503Z,17.00
2019-06-10T01:36:05.504Z,17.00
2019-06-10T01:37:04.861Z,17.00
2019-06-10T01:38:05.856Z,16.90
2019-06-10T01:39:05.123Z,16.90
2019-06-10T01:40:05.990Z,17.00
2019-06-10T01:41:06.053Z,17.00
2019-06-10T01:42:06.169Z,17.00
2019-06-10T01:43:08.273Z,16.90
2019-06-10T01:44:06.362Z,16.90
2019-06-10T01:45:11.173Z,16.90
2019-06-10T01:46:11.671Z,16.90
2019-06-10T01:47:08.681Z,16.90
2019-06-10T01:48:05.141Z,17.00
2019-06-10T01:49:09.359Z,16.90
2019-06-10T01:50:08.879Z,16.90
2019-06-10T01:51:04.995Z,16.90
2019-06-10T01:52:07.659Z,16.90
2019-06-10T01:53:04.947Z,16.90
2019-06-10T01:54:07.661Z,16.90
2019-06-10T01:55:05.623Z,17.00
2019-06-10T01:56:12.757Z,16.90
2019-06-10T01:57:08.132Z,17.00
2019-06-10T01:58:07.771Z,16.90
2019-06-10T01:59:04.776Z,16.90
2019-06-10T02:00:09.841Z,16.90
2019-06-10T02:01:08.330Z,16.90
2019-06-10T02:02:09.702Z,16.90
2019-06-10T02:03:04.849Z,16.90
2019-06-10T02:04:08.250Z,16.90
2019-06-10T02:05:05.269Z,16.90
2019-06-10T02:06:14.346Z,16.90
2019-06-10T02:07:05.471Z,16.90
2019-06-10T02:08:08.698Z,16.90
2019-06-10T02:09:05.193Z,16.90
2019-06-10T02:10:05.243Z,16.90
2019-06-10T02:11:09.117Z,16.90
2019-06-10T02:12:05.146Z,16.90
2019-06-10T02:13:07.689Z,17.00
2019-06-10T02:14:07.410Z,16.90
2019-06-10T02:15:07.861Z,16.90
2019-06-10T02:16:04.834Z,16.90
2019-06-10T02:17:04.771Z,16.90
2019-06-10T02:18:07.485Z,16.90
2019-06-10T02:19:05.420Z,16.90
2019-06-10T02:20:05.445Z,16.80
2019-06-10T02:21:05.663Z,16.80
2019-06-10T02:22:04.743Z,16.80
2019-06-10T02:23:04.827Z,16.80
2019-06-10T02:24:14.333Z,16.80
2019-06-10T02:25:07.320Z,16.80
2019-06-10T02:26:07.732Z,16.80
2019-06-10T02:27:04.746Z,16.80
2019-06-10T02:28:04.892Z,16.80
2019-06-10T02:29:04.955Z,16.80
2019-06-10T02:30:14.660Z,16.80
2019-06-10T02:31:07.241Z,16.80
2019-06-10T02:32:05.307Z,16.80
2019-06-10T02:33:11.439Z,16.90
2019-06-10T02:34:05.594Z,16.80
2019-06-10T02:35:13.374Z,16.90
2019-06-10T02:36:05.088Z,16.90
2019-06-10T02:37:05.234Z,16.90
2019-06-10T02:38:07.991Z,16.90
2019-06-10T02:39:05.052Z,16.90
2019-06-10T02:40:07.733Z,16.90
2019-06-10T02:41:09.826Z,16.90
2019-06-10T02:42:05.016Z,16.90
2019-06-10T02:43:05.168Z,16.90
2019-06-10T02:44:05.337Z,17.00
2019-06-10T02:45:08.175Z,16.90
2019-06-10T02:46:05.284Z,17.00
2019-06-10T02:47:05.557Z,17.00
2019-06-10T02:48:05.630Z,16.90
2019-06-10T02:49:20.319Z,17.00
2019-06-10T02:50:08.495Z,17.00
2019-06-10T02:51:05.509Z,17.00
2019-06-10T02:52:04.905Z,17.00
2019-06-10T02:53:07.590Z,17.00
2019-06-10T02:54:05.451Z,17.00
2019-06-10T02:55:08.095Z,17.00
2019-06-10T02:56:07.674Z,17.00
2019-06-10T02:57:05.579Z,16.90
2019-06-10T02:58:07.199Z,17.00
2019-06-10T02:59:05.095Z,17.00
2019-06-10T03:00:15.603Z,16.90
2019-06-10T03:01:04.788Z,17.00
2019-06-10T03:02:07.383Z,17.00
2019-06-10T03:03:22.663Z,17.00
2019-06-10T03:04:04.934Z,17.00
2019-06-10T03:05:05.057Z,17.00
2019-06-10T03:06:08.035Z,17.00
2019-06-10T03:07:04.979Z,17.00
2019-06-10T03:08:05.170Z,17.00
2019-06-10T03:09:05.206Z,17.00
2019-06-10T03:10:05.395Z,17.00
2019-06-10T03:11:05.713Z,16.90
2019-06-10T03:12:07.509Z,16.90
2019-06-10T03:13:08.111Z,16.90
2019-06-10T03:14:07.646Z,16.90
2019-06-10T03:15:05.561Z,16.90
2019-06-10T03:16:08.302Z,16.90
2019-06-10T03:17:05.446Z,17.00
2019-06-10T03:18:05.631Z,17.00
2019-06-10T03:19:04.776Z,17.00
2019-06-10T03:20:12.137Z,17.00
2019-06-10T03:21:07.871Z,17.00
2019-06-10T03:22:04.832Z,16.90
2019-06-10T03:23:07.483Z,17.00
2019-06-10T03:24:08.064Z,17.00
2019-06-10T03:25:05.007Z,17.00
2019-06-10T03:26:07.661Z,16.90
2019-06-10T03:27:08.139Z,16.90
2019-06-10T03:28:07.675Z,16.90
2019-06-10T03:29:08.177Z,16.90
2019-06-10T03:30:15.131Z,16.90
2019-06-10T03:31:06.220Z,16.90
2019-06-10T03:32:05.748Z,16.90
2019-06-10T03:33:05.268Z,16.90
2019-06-10T03:34:08.272Z,16.90
2019-06-10T03:35:05.563Z,16.90
2019-06-10T03:36:11.976Z,16.90
2019-06-10T03:37:08.072Z,16.90
2019-06-10T03:38:05.200Z,16.90
2019-06-10T03:39:07.855Z,16.80
2019-06-10T03:40:07.434Z,16.90
2019-06-10T03:41:08.051Z,16.80
2019-06-10T03:42:07.559Z,16.80
2019-06-10T03:43:05.529Z,16.80
2019-06-10T03:44:12.928Z,16.80
2019-06-10T03:45:08.213Z,16.80
2019-06-10T03:46:08.190Z,16.90
2019-06-10T03:47:07.802Z,16.90
2019-06-10T03:48:04.776Z,16.90
2019-06-10T03:49:05.691Z,16.90
2019-06-10T03:50:04.911Z,16.80
2019-06-10T03:51:07.638Z,16.90
2019-06-10T03:52:08.162Z,16.90
2019-06-10T03:53:05.082Z,16.80
2019-06-10T03:54:05.290Z,16.80
2019-06-10T03:55:07.908Z,16.90
2019-06-10T03:56:07.517Z,16.90
2019-06-10T03:57:05.550Z,16.90
2019-06-10T03:58:05.592Z,16.90
2019-06-10T03:59:05.496Z,16.90
2019-06-10T04:00:10.311Z,16.90
2019-06-10T04:01:04.923Z,16.90
2019-06-10T04:02:05.023Z,16.90
2019-06-10T04:03:05.149Z,16.90
2019-06-10T04:04:07.752Z,16.90
2019-06-10T04:05:07.290Z,16.90
2019-06-10T04:06:05.354Z,16.90
2019-06-10T04:07:05.576Z,17.00
2019-06-10T04:08:07.430Z,17.00
2019-06-10T04:09:05.516Z,16.90
2019-06-10T04:10:13.328Z,17.00
2019-06-10T04:11:07.938Z,17.00
2019-06-10T04:12:05.073Z,17.00
2019-06-10T04:13:07.963Z,17.00
2019-06-10T04:14:07.519Z,17.10
2019-06-10T04:15:05.508Z,17.00
2019-06-10T04:16:08.174Z,17.10
2019-06-10T04:17:05.259Z,17.10
2019-06-10T04:18:13.001Z,17.20
2019-06-10T04:19:04.862Z,17.20
2019-06-10T04:20:11.270Z,17.20
2019-06-10T04:21:07.832Z,17.30
2019-06-10T04:22:04.770Z,17.20
2019-06-10T04:23:04.803Z,17.30
2019-06-10T04:24:07.921Z,17.40
2019-06-10T04:25:07.878Z,17.50
2019-06-10T04:26:07.948Z,17.50
2019-06-10T04:27:12.263Z,17.50
2019-06-10T04:28:07.822Z,17.50
2019-06-10T04:29:04.933Z,17.50
2019-06-10T04:30:05.054Z,17.50
2019-06-10T04:31:05.401Z,17.50
2019-06-10T04:32:05.635Z,17.50
2019-06-10T04:33:07.284Z,17.50
2019-06-10T04:34:07.803Z,17.60
2019-06-10T04:35:07.415Z,17.50
2019-06-10T04:36:08.200Z,17.60
2019-06-10T04:37:18.348Z,17.60
2019-06-10T04:38:08.014Z,17.60
2019-06-10T04:39:05.050Z,17.60
2019-06-10T04:40:05.394Z,17.60
2019-06-10T04:41:05.094Z,17.60
2019-06-10T04:42:05.685Z,17.60
2019-06-10T04:43:12.283Z,17.60
2019-06-10T04:44:05.373Z,17.60
2019-06-10T04:45:04.967Z,17.70
2019-06-10T04:46:05.545Z,17.70
2019-06-10T04:47:08.472Z,17.70
2019-06-10T04:48:12.407Z,17.70
2019-06-10T04:49:05.650Z,17.70
2019-06-10T04:50:04.926Z,17.70
2019-06-10T04:51:05.089Z,17.70
2019-06-10T04:52:08.732Z,17.70
2019-06-10T04:53:07.403Z,17.70
2019-06-10T04:54:05.522Z,17.80
2019-06-10T04:55:05.742Z,17.80
2019-06-10T04:56:07.590Z,17.80
2019-06-10T04:57:07.659Z,17.80
2019-06-10T04:58:12.934Z,17.90
2019-06-10T04:59:05.246Z,17.80
2019-06-10T05:00:11.926Z,17.90
2019-06-10T05:01:07.263Z,17.90
2019-06-10T05:02:12.658Z,17.90
2019-06-10T05:03:07.333Z,18.00
2019-06-10T05:04:05.290Z,17.90
2019-06-10T05:05:05.655Z,17.90
2019-06-10T05:06:04.866Z,18.00
2019-06-10T05:07:07.481Z,18.00
2019-06-10T05:08:05.580Z,18.00
2019-06-10T05:09:08.371Z,18.00
2019-06-10T05:10:07.906Z,18.00
2019-06-10T05:11:05.650Z,17.90
2019-06-10T05:12:08.148Z,17.90
2019-06-10T05:13:07.844Z,17.90
2019-06-10T05:14:05.047Z,17.90
2019-06-10T05:15:05.318Z,17.90
2019-06-10T05:16:08.302Z,18.00
2019-06-10T05:17:05.623Z,17.90
2019-06-10T05:18:05.685Z,17.90
2019-06-10T05:19:05.131Z,17.90
2019-06-10T05:20:05.349Z,18.00
2019-06-10T05:21:08.167Z,18.00
2019-06-10T05:22:05.169Z,17.90
2019-06-10T05:23:12.539Z,18.00
2019-06-10T05:24:12.381Z,18.00
2019-06-10T05:25:05.539Z,18.10
2019-06-10T05:26:08.450Z,18.10
2019-06-10T05:27:08.002Z,18.10
2019-06-10T05:28:05.071Z,18.20
2019-06-10T05:29:05.216Z,18.20
2019-06-10T05:30:05.499Z,18.10
2019-06-10T05:31:04.731Z,18.20
2019-06-10T05:32:07.451Z,18.20
2019-06-10T05:33:05.577Z,18.20
2019-06-10T05:34:07.389Z,18.30
2019-06-10T05:35:05.448Z,18.20
2019-06-10T05:36:12.831Z,18.30
2019-06-10T05:37:12.083Z,18.30
2019-06-10T05:38:05.166Z,18.30
2019-06-10T05:39:05.254Z,18.30
2019-06-10T05:40:05.493Z,18.40
2019-06-10T05:41:08.281Z,18.40
2019-06-10T05:42:05.452Z,18.40
2019-06-10T05:43:05.638Z,18.40
2019-06-10T05:44:04.769Z,18.40
2019-06-10T05:45:07.953Z,18.50
2019-06-10T05:46:07.612Z,18.40
2019-06-10T05:47:12.620Z,18.50
2019-06-10T05:48:07.253Z,18.50
2019-06-10T05:49:05.345Z,18.50
2019-06-10T05:50:08.073Z,18.50
2019-06-10T05:51:06.741Z,18.50
2019-06-10T05:52:12.481Z,18.50
2019-06-10T05:53:04.949Z,18.60
2019-06-10T05:54:05.229Z,18.60
2019-06-10T05:55:07.896Z,18.60
2019-06-10T05:56:04.899Z,18.60
2019-06-10T05:57:04.993Z,18.60
2019-06-10T05:58:07.670Z,18.70
2019-06-10T05:59:05.695Z,18.70
2019-06-10T06:00:11.224Z,18.70
2019-06-10T06:01:04.976Z,18.70
2019-06-10T06:02:05.221Z,18.70
2019-06-10T06:03:05.383Z,18.70
2019-06-10T06:04:05.483Z,18.70
2019-06-10T06:05:08.257Z,18.70
2019-06-10T06:06:07.806Z,18.70
2019-06-10T06:07:12.844Z,18.70
2019-06-10T06:08:08.281Z,18.80
2019-06-10T06:09:04.981Z,18.80
2019-06-10T06:10:12.796Z,18.80
2019-06-10T06:11:12.398Z,18.80
2019-06-10T06:12:05.797Z,18.80
2019-06-10T06:13:07.586Z,18.80
2019-06-10T06:14:13.016Z,18.80
2019-06-10T06:15:05.236Z,18.80
2019-06-10T06:16:07.829Z,18.90
2019-06-10T06:17:04.831Z,18.90
2019-06-10T06:18:10.045Z,18.90
2019-06-10T06:19:04.896Z,18.90
2019-06-10T06:20:05.021Z,18.90
2019-06-10T06:21:20.446Z,18.90
2019-06-10T06:22:05.351Z,18.90
2019-06-10T06:23:15.795Z,19.00
2019-06-10T06:24:07.350Z,19.00
2019-06-10T06:25:05.390Z,19.00
2019-06-10T06:26:05.485Z,19.00
2019-06-10T06:27:08.360Z,19.00
2019-06-10T06:28:05.380Z,19.00
2019-06-10T06:29:08.136Z,19.00
2019-06-10T06:30:11.039Z,19.10
2019-06-10T06:31:08.046Z,19.10
2019-06-10T06:32:05.064Z,19.10
2019-06-10T06:33:05.201Z,19.10
2019-06-10T06:34:08.046Z,19.20
2019-06-10T06:35:05.098Z,19.20
2019-06-10T06:36:05.153Z,19.20
2019-06-10T06:37:05.257Z,19.30
2019-06-10T06:38:08.073Z,19.30
2019-06-10T06:39:05.032Z,19.30
2019-06-10T06:40:07.765Z,19.40
2019-06-10T06:41:07.322Z,19.40
2019-06-10T06:42:05.430Z,19.40
2019-06-10T06:43:08.180Z,19.50
2019-06-10T06:44:13.174Z,19.60
2019-06-10T06:45:05.337Z,19.60
2019-06-10T06:46:05.662Z,19.60
2019-06-10T06:47:04.887Z,19.60
2019-06-10T06:48:07.628Z,19.70
2019-06-10T06:49:08.130Z,19.80
2019-06-10T06:50:05.200Z,19.80
2019-06-10T06:51:08.431Z,19.80
2019-06-10T06:52:07.440Z,19.90
2019-06-10T06:53:20.832Z,19.80
2019-06-10T06:54:07.699Z,19.90
2019-06-10T06:55:07.252Z,20.00
2019-06-10T06:56:07.749Z,20.00
2019-06-10T06:57:07.324Z,20.10
2019-06-10T06:58:05.239Z,20.00
2019-06-10T06:59:05.546Z,20.10
2019-06-10T07:00:30.083Z,20.10
2019-06-10T07:01:10.018Z,20.20
2019-06-10T07:02:05.057Z,20.20
2019-06-10T07:03:05.221Z,20.20
2019-06-10T07:04:05.393Z,20.20
2019-06-10T07:05:04.804Z,20.20
2019-06-10T07:06:09.998Z,20.30
2019-06-10T07:07:04.745Z,20.30
2019-06-10T07:08:04.822Z,20.40
2019-06-10T07:09:08.006Z,20.40
2019-06-10T07:10:08.230Z,20.40
2019-06-10T07:11:10.340Z,20.40
2019-06-10T07:12:05.030Z,20.40
2019-06-10T07:13:05.110Z,20.40
2019-06-10T07:14:05.354Z,20.40
2019-06-10T07:15:05.712Z,20.40
2019-06-10T07:16:13.123Z,20.50
2019-06-10T07:17:05.362Z,20.50
2019-06-10T07:18:05.522Z,20.60
2019-06-10T07:19:04.882Z,20.60
2019-06-10T07:20:05.195Z,20.60
2019-06-10T07:21:05.375Z,20.60
2019-06-10T07:22:11.668Z,20.70
2019-06-10T07:23:04.989Z,20.70
2019-06-10T07:24:05.204Z,20.70
2019-06-10T07:25:06.562Z,20.80
2019-06-10T07:26:07.403Z,20.90
2019-06-10T07:27:05.339Z,20.90
2019-06-10T07:28:12.502Z,20.90
2019-06-10T07:29:08.184Z,21.00
2019-06-10T07:30:11.625Z,21.00
2019-06-10T07:31:19.747Z,21.00
2019-06-10T07:32:05.232Z,21.00
2019-06-10T07:33:07.887Z,21.00
2019-06-10T07:34:05.102Z,21.00
2019-06-10T07:35:05.381Z,21.00
2019-06-10T07:36:05.612Z,21.00
2019-06-10T07:37:04.798Z,21.10
2019-06-10T07:38:07.424Z,21.20
2019-06-10T07:39:05.383Z,21.20
2019-06-10T07:40:08.055Z,21.30
2019-06-10T07:41:05.076Z,21.30
2019-06-10T07:42:10.315Z,21.40
2019-06-10T07:43:05.270Z,21.40
2019-06-10T07:44:12.439Z,21.40
2019-06-10T07:45:05.243Z,21.50
2019-06-10T07:46:08.151Z,21.60
2019-06-10T07:47:07.924Z,21.70
2019-06-10T07:48:05.003Z,21.70
2019-06-10T07:49:05.126Z,21.70
2019-06-10T07:50:08.152Z,21.80
2019-06-10T07:51:05.151Z,21.80
2019-06-10T07:52:15.137Z,21.90
2019-06-10T07:53:10.034Z,22.10
2019-06-10T07:54:05.563Z,22.10
2019-06-10T07:55:09.782Z,22.30
2019-06-10T07:56:04.833Z,22.30
2019-06-10T07:57:05.004Z,22.40
2019-06-10T07:58:07.802Z,22.50
2019-06-10T07:59:04.801Z,22.50
2019-06-10T08:00:07.484Z,22.70
2019-06-10T08:01:08.278Z,22.80
2019-06-10T08:02:08.045Z,22.90
2019-06-10T08:03:05.243Z,22.90
2019-06-10T08:04:05.419Z,23.00
2019-06-10T08:05:05.668Z,23.00
2019-06-10T08:06:04.988Z,23.10
2019-06-10T08:07:07.683Z,23.10
2019-06-10T08:08:08.333Z,23.20
2019-06-10T08:09:05.084Z,23.20
2019-06-10T08:10:07.833Z,23.20
2019-06-10T08:11:04.947Z,23.20
2019-06-10T08:12:05.976Z,23.20
2019-06-10T08:13:07.940Z,23.30
2019-06-10T08:14:07.626Z,23.30
2019-06-10T08:15:05.846Z,23.30
2019-06-10T08:16:07.573Z,23.40
2019-06-10T08:17:05.620Z,23.40
2019-06-10T08:18:07.402Z,23.50
2019-06-10T08:19:25.772Z,23.50
2019-06-10T08:20:05.265Z,23.50
2019-06-10T08:21:04.938Z,23.50
2019-06-10T08:22:05.251Z,23.60
2019-06-10T08:23:05.385Z,23.60
2019-06-10T08:24:05.558Z,23.60
2019-06-10T08:25:05.065Z,23.50
2019-06-10T08:26:08.131Z,23.50
2019-06-10T08:27:08.318Z,23.50
2019-06-10T08:28:04.901Z,23.50
2019-06-10T08:29:05.388Z,23.50
2019-06-10T08:31:08.194Z,23.60
2019-06-10T08:32:05.209Z,23.60
2019-06-10T08:33:05.407Z,23.60
2019-06-10T08:34:13.382Z,23.60
2019-06-10T08:35:08.265Z,23.60
2019-06-10T08:36:05.454Z,23.60
2019-06-10T08:37:07.771Z,23.60
2019-06-10T08:38:07.342Z,23.60
2019-06-10T08:39:05.420Z,23.60
2019-06-10T08:40:08.111Z,23.70
2019-06-10T08:41:05.172Z,23.70
2019-06-10T08:42:05.897Z,23.70
2019-06-10T08:43:05.324Z,23.70
2019-06-10T08:44:04.895Z,23.70
2019-06-10T08:45:05.341Z,23.80
2019-06-10T08:46:05.830Z,23.80
2019-06-10T08:47:07.521Z,23.90
2019-06-10T08:48:08.134Z,24.00
2019-06-10T08:49:05.438Z,23.90
2019-06-10T08:50:04.877Z,24.00
2019-06-10T08:51:07.571Z,24.00
2019-06-10T08:52:05.709Z,24.00
2019-06-10T08:53:14.150Z,24.00
2019-06-10T08:54:12.632Z,24.00
2019-06-10T08:55:04.943Z,24.00
2019-06-10T08:56:07.574Z,24.00
2019-06-10T08:57:05.735Z,24.00
2019-06-10T08:58:07.641Z,24.00
2019-06-10T08:59:04.994Z,23.90
2019-06-10T09:00:11.158Z,23.90
2019-06-10T09:01:07.509Z,24.00
2019-06-10T09:02:04.897Z,23.90
2019-06-10T09:03:05.700Z,24.00
2019-06-10T09:04:13.365Z,23.90
2019-06-10T09:05:07.744Z,23.90
2019-06-10T09:06:12.753Z,23.90
2019-06-10T09:07:05.759Z,23.90
2019-06-10T09:08:12.790Z,23.80
2019-06-10T09:09:05.177Z,23.90
2019-06-10T09:10:05.841Z,23.80
2019-06-10T09:11:08.068Z,23.90
2019-06-10T09:12:05.580Z,23.80
2019-06-10T09:13:05.273Z,23.90
2019-06-10T09:14:07.681Z,23.90
2019-06-10T09:15:08.123Z,24.00
2019-06-10T09:16:14.874Z,24.00
2019-06-10T09:17:05.417Z,23.90
2019-06-10T09:18:10.080Z,23.90
2019-06-10T09:19:04.985Z,24.00
2019-06-10T09:20:05.428Z,24.00
2019-06-10T09:21:12.703Z,24.00
2019-06-10T09:22:05.482Z,24.00
2019-06-10T09:23:17.219Z,24.10
2019-06-10T09:24:05.247Z,24.10
2019-06-10T09:25:05.687Z,24.10
2019-06-10T09:26:04.860Z,24.10
2019-06-10T09:27:05.293Z,24.20
2019-06-10T09:28:05.673Z,24.20
2019-06-10T09:29:07.725Z,24.40
2019-06-10T09:30:05.536Z,24.30
2019-06-10T09:31:05.413Z,24.40
2019-06-10T09:32:07.790Z,24.50
2019-06-10T09:33:05.218Z,24.50
2019-06-10T09:34:08.177Z,24.60
2019-06-10T09:35:05.334Z,24.60
2019-06-10T09:36:05.678Z,24.60
2019-06-10T09:37:12.218Z,24.70
2019-06-10T09:38:05.626Z,24.70
2019-06-10T09:39:07.365Z,24.80
2019-06-10T09:40:08.065Z,24.80
2019-06-10T09:41:06.290Z,24.80
2019-06-10T09:42:06.432Z,24.80
2019-06-10T09:43:05.182Z,24.80
2019-06-10T09:44:05.358Z,24.90
2019-06-10T09:45:12.821Z,24.90
2019-06-10T09:46:12.769Z,25.00
2019-06-10T09:47:04.877Z,24.90
2019-06-10T09:48:05.264Z,25.00
2019-06-10T09:49:05.291Z,24.90
2019-06-10T09:50:08.334Z,25.00
2019-06-10T09:51:05.448Z,25.00
2019-06-10T09:52:04.779Z,25.00
2019-06-10T09:53:07.518Z,25.00
2019-06-10T09:54:08.198Z,25.10
2019-06-10T09:55:05.603Z,25.10
2019-06-10T09:56:04.786Z,25.10
2019-06-10T09:57:05.188Z,25.10
2019-06-10T09:58:05.805Z,25.20
2019-06-10T09:59:07.738Z,25.20
2019-06-10T10:00:07.678Z,25.20
2019-06-10T10:01:07.727Z,25.20
2019-06-10T10:02:15.360Z,25.20
2019-06-10T10:03:04.790Z,25.20
2019-06-10T10:04:05.021Z,25.20
2019-06-10T10:05:07.940Z,25.20
2019-06-10T10:06:13.950Z,25.20
2019-06-10T10:07:05.044Z,25.20
2019-06-10T10:08:05.386Z,25.20
2019-06-10T10:09:05.729Z,25.30
2019-06-10T10:10:05.564Z,25.30
2019-06-10T10:11:05.286Z,25.30
2019-06-10T10:12:12.075Z,25.40
2019-06-10T10:13:05.690Z,25.40
2019-06-10T10:14:08.348Z,25.40
2019-06-10T10:15:22.488Z,25.50
2019-06-10T10:16:16.035Z,25.50
2019-06-10T10:17:05.621Z,25.50
2019-06-10T10:18:07.708Z,25.70
2019-06-10T10:19:05.518Z,25.70
2019-06-10T10:20:05.533Z,25.70
2019-06-10T10:21:05.243Z,25.70
2019-06-10T10:22:13.971Z,25.80
2019-06-10T10:23:05.680Z,25.80
2019-06-10T10:24:10.929Z,25.80
2019-06-10T10:25:09.996Z,25.80
2019-06-10T10:26:08.069Z,25.90
2019-06-10T10:27:09.463Z,25.90
2019-06-10T10:28:05.338Z,25.90
2019-06-10T10:29:05.194Z,26.00
2019-06-10T10:30:05.055Z,26.00
2019-06-10T10:31:05.832Z,26.10
2019-06-10T10:32:05.579Z,26.10
2019-06-10T10:33:12.778Z,26.20
2019-06-10T10:34:05.432Z,26.20
2019-06-10T10:35:05.129Z,26.20
2019-06-10T10:36:08.344Z,26.20
2019-06-10T10:37:05.849Z,26.30
2019-06-10T10:38:05.701Z,26.30
2019-06-10T10:39:05.346Z,26.30
2019-06-10T10:40:05.615Z,26.20
2019-06-10T10:41:05.397Z,26.30
2019-06-10T10:42:05.144Z,26.30
2019-06-10T10:43:23.215Z,26.20
2019-06-10T10:44:05.358Z,26.30
2019-06-10T10:45:10.059Z,26.30
2019-06-10T10:46:13.780Z,26.30
2019-06-10T10:47:05.635Z,26.20
2019-06-10T10:48:05.216Z,26.30
2019-06-10T10:49:04.931Z,26.30
2019-06-10T10:50:05.713Z,26.30
2019-06-10T10:51:05.131Z,26.30
2019-06-10T10:52:12.915Z,26.40
2019-06-10T10:53:07.914Z,26.40
2019-06-10T10:54:20.672Z,26.40
2019-06-10T10:55:13.128Z,26.40
2019-06-10T10:56:05.325Z,26.40
2019-06-10T10:57:05.068Z,26.40
2019-06-10T10:58:05.630Z,26.40
2019-06-10T10:59:05.442Z,26.40
2019-06-10T11:00:05.192Z,26.30
2019-06-10T11:01:05.830Z,26.30
2019-06-10T11:02:07.983Z,26.30
2019-06-10T11:03:05.507Z,26.20
2019-06-10T11:04:05.276Z,26.30
2019-06-10T11:05:12.219Z,26.20
2019-06-10T11:06:05.253Z,26.30
2019-06-10T11:07:05.026Z,26.20
2019-06-10T11:08:05.689Z,26.30
2019-06-10T11:09:05.355Z,26.30
2019-06-10T11:10:04.997Z,26.20
2019-06-10T11:11:06.038Z,26.30
2019-06-10T11:12:10.831Z,26.30
2019-06-10T11:13:10.617Z,26.30
2019-06-10T11:14:07.784Z,26.30
2019-06-10T11:15:07.866Z,26.30
2019-06-10T11:16:05.369Z,26.30
2019-06-10T11:17:05.134Z,26.30
2019-06-10T11:18:05.900Z,26.30
2019-06-10T11:19:05.564Z,26.40
2019-06-10T11:20:05.143Z,26.40
2019-06-10T11:21:13.021Z,26.40
2019-06-10T11:22:05.656Z,26.50
2019-06-10T11:23:05.286Z,26.50
2019-06-10T11:24:05.029Z,26.50
2019-06-10T11:25:08.511Z,26.50
2019-06-10T11:26:07.696Z,26.60
2019-06-10T11:27:05.339Z,26.50
2019-06-10T11:28:05.197Z,26.60
2019-06-10T11:29:05.819Z,26.50
2019-06-10T11:30:05.471Z,26.50
2019-06-10T11:31:05.132Z,26.50
2019-06-10T11:32:05.880Z,26.50
2019-06-10T11:33:05.103Z,26.40
2019-06-10T11:34:05.117Z,26.40
2019-06-10T11:35:05.755Z,26.40
2019-06-10T11:36:05.405Z,26.40
2019-06-10T11:37:12.128Z,26.30
2019-06-10T11:38:05.251Z,26.30
2019-06-10T11:39:06.097Z,26.20
2019-06-10T11:40:05.708Z,26.20
2019-06-10T11:41:13.231Z,26.10
2019-06-10T11:42:12.607Z,26.10
2019-06-10T11:43:08.336Z,26.10
2019-06-10T11:44:07.532Z,26.10
2019-06-10T11:45:05.017Z,26.10
2019-06-10T11:46:07.599Z,26.10
2019-06-10T11:47:05.738Z,26.10
2019-06-10T11:48:05.525Z,26.10
2019-06-10T11:49:05.229Z,26.10
2019-06-10T11:50:07.567Z,26.10
2019-06-10T11:51:05.162Z,26.10
2019-06-10T11:52:04.912Z,26.20
2019-06-10T11:53:05.752Z,26.20
2019-06-10T11:54:06.075Z,26.20
2019-06-10T11:55:14.980Z,26.30
2019-06-10T11:56:06.192Z,26.30
2019-06-10T11:57:07.586Z,26.40
2019-06-10T11:58:08.105Z,26.50
2019-06-10T11:59:09.555Z,26.40
2019-06-10T12:00:13.842Z,26.50
2019-06-10T12:01:05.738Z,26.60
2019-06-10T12:02:06.101Z,26.60
2019-06-10T12:03:04.953Z,26.60
2019-06-10T12:04:12.964Z,26.60
2019-06-10T12:05:07.612Z,26.60
2019-06-10T12:06:05.665Z,26.60
2019-06-10T12:07:05.612Z,26.60
2019-06-10T12:08:05.385Z,26.60
2019-06-10T12:09:07.629Z,26.70
2019-06-10T12:10:05.305Z,26.70
2019-06-10T12:11:06.038Z,26.70
2019-06-10T12:12:08.425Z,26.70
2019-06-10T12:13:07.217Z,26.70
2019-06-10T12:14:05.354Z,26.70
2019-06-10T12:15:05.131Z,26.70
2019-06-10T12:17:20.976Z,26.60
2019-06-10T12:18:08.532Z,26.60
2019-06-10T12:19:05.105Z,26.60
2019-06-10T12:20:05.786Z,26.50
2019-06-10T12:21:05.395Z,26.40
2019-06-10T12:22:07.480Z,25.60
2019-06-10T12:23:04.993Z,26.40
2019-06-10T12:24:05.731Z,26.30
2019-06-10T12:25:28.260Z,26.30
2019-06-10T12:26:05.551Z,26.30
2019-06-10T12:27:05.376Z,26.30
2019-06-10T12:28:07.383Z,26.30
2019-06-10T12:29:08.124Z,26.30
2019-06-10T12:30:14.395Z,26.30
2019-06-10T12:31:06.984Z,26.30
2019-06-10T12:32:07.078Z,26.40
2019-06-10T12:33:05.688Z,26.40
2019-06-10T12:34:05.904Z,26.40
2019-06-10T12:35:05.840Z,26.40
2019-06-10T12:36:07.023Z,26.40
2019-06-10T12:37:10.995Z,26.40
2019-06-10T12:38:06.170Z,26.40
2019-06-10T12:39:10.471Z,26.40
2019-06-10T12:40:05.750Z,26.40
2019-06-10T12:41:10.217Z,26.40
2019-06-10T12:42:06.395Z,26.50
2019-06-10T12:43:07.060Z,26.50
2019-06-10T12:44:04.944Z,26.50
2019-06-10T12:45:08.289Z,26.60
2019-06-10T12:46:04.815Z,26.60
2019-06-10T12:47:07.485Z,26.60
2019-06-10T12:48:06.905Z,26.60
2019-06-10T12:49:08.394Z,26.60
2019-06-10T12:50:05.694Z,26.70
2019-06-10T12:51:09.416Z,26.70
2019-06-10T12:52:07.351Z,26.60
2019-06-10T12:53:07.040Z,26.70
2019-06-10T12:54:12.897Z,26.70